sensor_id;sensor_type;location;lat;lon;timestamp;P1;durP1;ratioP1;P2;durP2;ratioP2
31974;SDS011;18500;43.618;1.474;2023-12-20T06:11:56;840.88;;;779.95;;
31974;SDS011;18500;43.618;1.474;2023-12-20T06:14:21;887.40;;;820.40;;
31974;SDS011;18500;43.618;1.474;2023-12-20T06:16:47;858.67;;;795.10;;
31974;SDS011;18500;43.618;1.474;2023-12-20T06:19:13;848.22;;;786.00;;
31974;SDS011;18500;43.618;1.474;2023-12-20T06:21:39;790.83;;;733.60;;
31974;SDS011;18500;43.618;1.474;2023-12-20T06:24:04;814.42;;;753.55;;
31974;SDS011;18500;43.618;1.474;2023-12-20T06:26:30;773.55;;;717.95;;
31974;SDS011;18500;43.618;1.474;2023-12-20T06:28:56;822.97;;;762.13;;
31974;SDS011;18500;43.618;1.474;2023-12-20T06:31:21;801.53;;;743.97;;
31974;SDS011;18500;43.618;1.474;2023-12-20T06:33:47;859.88;;;796.08;;
31974;SDS011;18500;43.618;1.474;2023-12-20T06:36:14;869.30;;;802.85;;
31974;SDS011;18500;43.618;1.474;2023-12-20T06:38:40;849.92;;;786.20;;
31974;SDS011;18500;43.618;1.474;2023-12-20T06:41:07;846.72;;;783.25;;
31974;SDS011;18500;43.618;1.474;2023-12-20T06:43:32;852.25;;;789.20;;
31974;SDS011;18500;43.618;1.474;2023-12-20T06:46:00;877.50;;;810.88;;
31974;SDS011;18500;43.618;1.474;2023-12-20T06:48:26;911.03;;;840.55;;
31974;SDS011;18500;43.618;1.474;2023-12-20T06:50:51;879.45;;;812.08;;
31974;SDS011;18500;43.618;1.474;2023-12-20T06:53:17;926.45;;;855.35;;
31974;SDS011;18500;43.618;1.474;2023-12-20T06:55:43;939.58;;;867.03;;
31974;SDS011;18500;43.618;1.474;2023-12-20T06:58:09;886.95;;;819.40;;
31974;SDS011;18500;43.618;1.474;2023-12-20T07:00:34;876.70;;;811.58;;
31974;SDS011;18500;43.618;1.474;2023-12-20T07:03:00;886.63;;;820.17;;
31974;SDS011;18500;43.618;1.474;2023-12-20T07:05:26;907.67;;;839.25;;
31974;SDS011;18500;43.618;1.474;2023-12-20T07:07:52;845.70;;;784.22;;
31974;SDS011;18500;43.618;1.474;2023-12-20T07:10:17;859.67;;;795.92;;
31974;SDS011;18500;43.618;1.474;2023-12-20T07:12:43;813.70;;;749.75;;
31974;SDS011;18500;43.618;1.474;2023-12-20T07:15:09;628.35;;;585.25;;
31974;SDS011;18500;43.618;1.474;2023-12-20T07:17:35;555.95;;;519.28;;
31974;SDS011;18500;43.618;1.474;2023-12-20T07:20:01;562.28;;;525.30;;
31974;SDS011;18500;43.618;1.474;2023-12-20T07:22:29;547.63;;;510.90;;
31974;SDS011;18500;43.618;1.474;2023-12-20T07:24:56;580.97;;;543.08;;
31974;SDS011;18500;43.618;1.474;2023-12-20T07:27:23;665.25;;;618.45;;
31974;SDS011;18500;43.618;1.474;2023-12-20T07:29:48;606.83;;;563.65;;
31974;SDS011;18500;43.618;1.474;2023-12-20T07:32:14;531.28;;;495.92;;
31974;SDS011;18500;43.618;1.474;2023-12-20T07:34:39;552.95;;;516.30;;
31974;SDS011;18500;43.618;1.474;2023-12-20T07:37:05;635.53;;;592.25;;
31974;SDS011;18500;43.618;1.474;2023-12-20T07:39:31;654.10;;;608.28;;
31974;SDS011;18500;43.618;1.474;2023-12-20T07:41:56;643.00;;;597.83;;
31974;SDS011;18500;43.618;1.474;2023-12-20T07:44:22;588.30;;;548.25;;
31974;SDS011;18500;43.618;1.474;2023-12-20T07:46:48;617.85;;;575.67;;
31974;SDS011;18500;43.618;1.474;2023-12-20T07:49:13;772.63;;;717.58;;
31974;SDS011;18500;43.618;1.474;2023-12-20T07:51:39;727.33;;;676.80;;
31974;SDS011;18500;43.618;1.474;2023-12-20T07:54:05;729.15;;;678.03;;
31974;SDS011;18500;43.618;1.474;2023-12-20T07:56:33;672.97;;;626.78;;
31974;SDS011;18500;43.618;1.474;2023-12-20T07:58:58;532.88;;;500.17;;
31974;SDS011;18500;43.618;1.474;2023-12-20T08:01:24;645.67;;;602.92;;
31974;SDS011;18500;43.618;1.474;2023-12-20T08:03:50;717.08;;;666.88;;
31974;SDS011;18500;43.618;1.474;2023-12-20T08:06:15;604.70;;;563.55;;
31974;SDS011;18500;43.618;1.474;2023-12-20T08:08:42;756.25;;;703.10;;
31974;SDS011;18500;43.618;1.474;2023-12-20T08:11:08;724.83;;;673.67;;
31974;SDS011;18500;43.618;1.474;2023-12-20T08:13:33;598.47;;;558.05;;
31974;SDS011;18500;43.618;1.474;2023-12-20T08:15:59;730.83;;;679.67;;
31974;SDS011;18500;43.618;1.474;2023-12-20T08:18:25;582.67;;;544.38;;
31974;SDS011;18500;43.618;1.474;2023-12-20T08:20:50;662.88;;;615.10;;
31974;SDS011;18500;43.618;1.474;2023-12-20T08:23:18;606.08;;;563.78;;
31974;SDS011;18500;43.618;1.474;2023-12-20T08:25:46;590.45;;;551.95;;
31974;SDS011;18500;43.618;1.474;2023-12-20T08:28:12;608.65;;;567.15;;
31974;SDS011;18500;43.618;1.474;2023-12-20T08:30:37;775.35;;;720.28;;
31974;SDS011;18500;43.618;1.474;2023-12-20T08:33:03;717.20;;;665.30;;
31974;SDS011;18500;43.618;1.474;2023-12-20T08:35:29;659.33;;;613.92;;
31974;SDS011;18500;43.618;1.474;2023-12-20T08:37:55;622.80;;;580.22;;
31974;SDS011;18500;43.618;1.474;2023-12-20T08:40:21;681.30;;;634.28;;
31974;SDS011;18500;43.618;1.474;2023-12-20T08:42:47;533.50;;;499.08;;
31974;SDS011;18500;43.618;1.474;2023-12-20T08:45:12;439.88;;;414.05;;
31974;SDS011;18500;43.618;1.474;2023-12-20T08:47:38;525.38;;;492.50;;
31974;SDS011;18500;43.618;1.474;2023-12-20T08:50:06;478.77;;;449.13;;
31974;SDS011;18500;43.618;1.474;2023-12-20T08:52:32;480.40;;;450.55;;
31974;SDS011;18500;43.618;1.474;2023-12-20T08:54:58;576.30;;;538.17;;
31974;SDS011;18500;43.618;1.474;2023-12-20T08:57:23;477.65;;;449.52;;
31974;SDS011;18500;43.618;1.474;2023-12-20T08:59:50;560.47;;;523.25;;
31974;SDS011;18500;43.618;1.474;2023-12-20T09:02:16;584.65;;;546.55;;
31974;SDS011;18500;43.618;1.474;2023-12-20T09:04:42;470.27;;;441.55;;
31974;SDS011;18500;43.618;1.474;2023-12-20T09:07:41;490.23;;;459.50;;
31974;SDS011;18500;43.618;1.474;2023-12-20T09:10:00;583.25;;;545.10;;
31974;SDS011;18500;43.618;1.474;2023-12-20T09:12:25;663.90;;;619.33;;
31974;SDS011;18500;43.618;1.474;2023-12-20T09:14:51;522.38;;;489.45;;
31974;SDS011;18500;43.618;1.474;2023-12-20T09:17:18;438.50;;;412.42;;
31974;SDS011;18500;43.618;1.474;2023-12-20T09:19:44;585.05;;;546.17;;
31974;SDS011;18500;43.618;1.474;2023-12-20T09:22:10;570.22;;;532.33;;
31974;SDS011;18500;43.618;1.474;2023-12-20T09:24:36;424.00;;;398.80;;
31974;SDS011;18500;43.618;1.474;2023-12-20T09:27:03;599.35;;;560.28;;
31974;SDS011;18500;43.618;1.474;2023-12-20T09:29:30;476.15;;;447.55;;
31974;SDS011;18500;43.618;1.474;2023-12-20T09:31:56;577.53;;;539.03;;
31974;SDS011;18500;43.618;1.474;2023-12-20T09:34:22;518.53;;;485.58;;
31974;SDS011;18500;43.618;1.474;2023-12-20T09:36:48;660.72;;;615.95;;
31974;SDS011;18500;43.618;1.474;2023-12-20T09:39:14;460.42;;;432.35;;
31974;SDS011;18500;43.618;1.474;2023-12-20T09:41:44;462.63;;;434.33;;
31974;SDS011;18500;43.618;1.474;2023-12-20T09:44:16;448.15;;;421.38;;
31974;SDS011;18500;43.618;1.474;2023-12-20T09:46:43;422.02;;;396.42;;
31974;SDS011;18500;43.618;1.474;2023-12-20T09:49:10;414.20;;;389.63;;
31974;SDS011;18500;43.618;1.474;2023-12-20T09:51:38;540.67;;;505.20;;
31974;SDS011;18500;43.618;1.474;2023-12-20T09:54:05;432.80;;;406.73;;
31974;SDS011;18500;43.618;1.474;2023-12-20T09:56:31;456.48;;;429.02;;
31974;SDS011;18500;43.618;1.474;2023-12-20T09:58:57;482.95;;;453.45;;
31974;SDS011;18500;43.618;1.474;2023-12-20T10:01:26;462.38;;;434.55;;
31974;SDS011;18500;43.618;1.474;2023-12-20T10:03:54;500.77;;;469.60;;
31974;SDS011;18500;43.618;1.474;2023-12-20T10:06:19;543.97;;;510.25;;
31974;SDS011;18500;43.618;1.474;2023-12-20T10:08:46;677.72;;;629.83;;
31974;SDS011;18500;43.618;1.474;2023-12-20T10:11:12;695.55;;;647.67;;
31974;SDS011;18500;43.618;1.474;2023-12-20T10:13:39;746.15;;;692.55;;
31974;SDS011;18500;43.618;1.474;2023-12-20T10:16:09;801.67;;;742.35;;
31974;SDS011;18500;43.618;1.474;2023-12-20T10:18:34;513.92;;;482.10;;
31974;SDS011;18500;43.618;1.474;2023-12-20T10:21:01;490.23;;;460.20;;
31974;SDS011;18500;43.618;1.474;2023-12-20T10:23:28;510.25;;;478.05;;
31974;SDS011;18500;43.618;1.474;2023-12-20T10:25:59;460.00;;;431.42;;
31974;SDS011;18500;43.618;1.474;2023-12-20T10:28:25;482.25;;;452.45;;
31974;SDS011;18500;43.618;1.474;2023-12-20T10:30:54;477.20;;;447.70;;
31974;SDS011;18500;43.618;1.474;2023-12-20T10:33:31;509.77;;;477.75;;
31974;SDS011;18500;43.618;1.474;2023-12-20T10:35:57;472.17;;;442.42;;
31974;SDS011;18500;43.618;1.474;2023-12-20T10:38:23;513.20;;;479.77;;
31974;SDS011;18500;43.618;1.474;2023-12-20T10:40:49;504.23;;;471.55;;
31974;SDS011;18500;43.618;1.474;2023-12-20T10:43:24;662.33;;;616.97;;
31974;SDS011;18500;43.618;1.474;2023-12-20T10:45:51;591.08;;;552.80;;
31974;SDS011;18500;43.618;1.474;2023-12-20T10:48:17;521.03;;;487.70;;
31974;SDS011;18500;43.618;1.474;2023-12-20T10:50:43;511.00;;;476.80;;
31974;SDS011;18500;43.618;1.474;2023-12-20T10:53:10;510.50;;;476.25;;
31974;SDS011;18500;43.618;1.474;2023-12-20T10:55:37;464.70;;;434.23;;
31974;SDS011;18500;43.618;1.474;2023-12-20T10:58:09;684.70;;;637.05;;
31974;SDS011;18500;43.618;1.474;2023-12-20T11:00:38;681.17;;;634.17;;
31974;SDS011;18500;43.618;1.474;2023-12-20T11:03:08;760.70;;;706.40;;
31974;SDS011;18500;43.618;1.474;2023-12-20T11:05:47;761.72;;;706.00;;
31974;SDS011;18500;43.618;1.474;2023-12-20T11:08:32;820.17;;;758.10;;
31974;SDS011;18500;43.618;1.474;2023-12-20T11:11:27;810.05;;;750.35;;
31974;SDS011;18500;43.618;1.474;2023-12-20T11:14:03;795.10;;;735.55;;
31974;SDS011;18500;43.618;1.474;2023-12-20T11:16:36;808.28;;;746.53;;
31974;SDS011;18500;43.618;1.474;2023-12-20T11:19:05;798.03;;;736.80;;
31974;SDS011;18500;43.618;1.474;2023-12-20T11:21:31;744.55;;;687.80;;
31974;SDS011;18500;43.618;1.474;2023-12-20T11:23:56;604.40;;;563.30;;
31974;SDS011;18500;43.618;1.474;2023-12-20T11:26:22;722.00;;;670.05;;
31974;SDS011;18500;43.618;1.474;2023-12-20T11:28:53;802.30;;;743.57;;
31974;SDS011;18500;43.618;1.474;2023-12-20T11:31:19;760.85;;;704.75;;
31974;SDS011;18500;43.618;1.474;2023-12-20T11:33:45;778.70;;;719.85;;
31974;SDS011;18500;43.618;1.474;2023-12-20T11:36:18;679.92;;;631.20;;
31974;SDS011;18500;43.618;1.474;2023-12-20T11:38:49;780.38;;;721.65;;
31974;SDS011;18500;43.618;1.474;2023-12-20T11:41:22;844.05;;;779.15;;
31974;SDS011;18500;43.618;1.474;2023-12-20T11:43:55;843.05;;;777.17;;
31974;SDS011;18500;43.618;1.474;2023-12-20T11:46:21;880.30;;;809.38;;
31974;SDS011;18500;43.618;1.474;2023-12-20T11:48:47;592.60;;;550.90;;
31974;SDS011;18500;43.618;1.474;2023-12-20T11:51:13;636.63;;;590.80;;
31974;SDS011;18500;43.618;1.474;2023-12-20T11:53:40;705.50;;;652.80;;
31974;SDS011;18500;43.618;1.474;2023-12-20T11:56:07;605.50;;;565.13;;
31974;SDS011;18500;43.618;1.474;2023-12-20T11:58:33;391.55;;;365.65;;
31974;SDS011;18500;43.618;1.474;2023-12-20T12:00:59;407.80;;;380.95;;
31974;SDS011;18500;43.618;1.474;2023-12-20T12:03:27;301.30;;;282.58;;
31974;SDS011;18500;43.618;1.474;2023-12-20T12:05:53;464.48;;;435.40;;
31974;SDS011;18500;43.618;1.474;2023-12-20T12:08:18;728.08;;;681.03;;
31974;SDS011;18500;43.618;1.474;2023-12-20T12:10:44;371.20;;;348.90;;
31974;SDS011;18500;43.618;1.474;2023-12-20T12:13:10;588.40;;;550.50;;
31974;SDS011;18500;43.618;1.474;2023-12-20T12:15:37;466.88;;;439.35;;
31974;SDS011;18500;43.618;1.474;2023-12-20T12:18:03;638.35;;;597.97;;
31974;SDS011;18500;43.618;1.474;2023-12-20T12:20:30;750.53;;;700.03;;
31974;SDS011;18500;43.618;1.474;2023-12-20T12:22:59;784.10;;;726.22;;
31974;SDS011;18500;43.618;1.474;2023-12-20T12:25:29;877.15;;;807.45;;
31974;SDS011;18500;43.618;1.474;2023-12-20T12:27:56;727.95;;;677.38;;
31974;SDS011;18500;43.618;1.474;2023-12-20T12:30:23;763.13;;;711.10;;
31974;SDS011;18500;43.618;1.474;2023-12-20T12:32:49;736.45;;;685.10;;
31974;SDS011;18500;43.618;1.474;2023-12-20T12:35:19;743.25;;;691.05;;
31974;SDS011;18500;43.618;1.474;2023-12-20T12:37:45;929.03;;;849.60;;
31974;SDS011;18500;43.618;1.474;2023-12-20T12:40:14;795.40;;;739.22;;
31974;SDS011;18500;43.618;1.474;2023-12-20T12:42:42;644.75;;;599.15;;
31974;SDS011;18500;43.618;1.474;2023-12-20T12:45:08;777.42;;;720.38;;
31974;SDS011;18500;43.618;1.474;2023-12-20T12:47:35;895.67;;;826.92;;
31974;SDS011;18500;43.618;1.474;2023-12-20T12:50:01;789.28;;;726.35;;
31974;SDS011;18500;43.618;1.474;2023-12-20T12:52:27;872.65;;;800.58;;
31974;SDS011;18500;43.618;1.474;2023-12-20T12:54:53;817.25;;;750.33;;
31974;SDS011;18500;43.618;1.474;2023-12-20T12:57:18;717.97;;;662.10;;
31974;SDS011;18500;43.618;1.474;2023-12-20T12:59:45;805.92;;;745.67;;
31974;SDS011;18500;43.618;1.474;2023-12-20T13:02:11;781.42;;;720.67;;
31974;SDS011;18500;43.618;1.474;2023-12-20T13:04:38;812.45;;;749.70;;
31974;SDS011;18500;43.618;1.474;2023-12-20T13:07:08;927.28;;;853.30;;
31974;SDS011;18500;43.618;1.474;2023-12-20T13:09:37;815.40;;;751.45;;
31974;SDS011;18500;43.618;1.474;2023-12-20T13:12:03;720.47;;;666.97;;
31974;SDS011;18500;43.618;1.474;2023-12-20T13:14:31;838.88;;;774.13;;
31974;SDS011;18500;43.618;1.474;2023-12-20T13:16:59;896.28;;;824.47;;
31974;SDS011;18500;43.618;1.474;2023-12-20T13:19:25;995.65;;;912.10;;
31974;SDS011;18500;43.618;1.474;2023-12-20T13:21:51;911.20;;;837.63;;
31974;SDS011;18500;43.618;1.474;2023-12-20T13:24:16;630.45;;;582.33;;
31974;SDS011;18500;43.618;1.474;2023-12-20T13:26:42;779.05;;;715.97;;
31974;SDS011;18500;43.618;1.474;2023-12-20T13:29:07;805.55;;;736.15;;
31974;SDS011;18500;43.618;1.474;2023-12-20T13:31:33;980.90;;;901.75;;
31974;SDS011;18500;43.618;1.474;2023-12-20T13:34:01;928.70;;;841.67;;
31974;SDS011;18500;43.618;1.474;2023-12-20T13:36:27;787.78;;;724.33;;
31974;SDS011;18500;43.618;1.474;2023-12-20T13:38:53;687.33;;;634.40;;
31974;SDS011;18500;43.618;1.474;2023-12-20T13:41:19;976.20;;;889.88;;
31974;SDS011;18500;43.618;1.474;2023-12-20T13:43:45;822.42;;;755.03;;
31974;SDS011;18500;43.618;1.474;2023-12-20T13:46:10;871.45;;;800.40;;
31974;SDS011;18500;43.618;1.474;2023-12-20T13:48:36;749.85;;;691.40;;
31974;SDS011;18500;43.618;1.474;2023-12-20T13:51:03;980.67;;;894.00;;
31974;SDS011;18500;43.618;1.474;2023-12-20T13:53:28;947.28;;;868.45;;
31974;SDS011;18500;43.618;1.474;2023-12-20T13:55:54;987.00;;;901.33;;
31974;SDS011;18500;43.618;1.474;2023-12-20T13:58:20;802.75;;;738.00;;
31974;SDS011;18500;43.618;1.474;2023-12-20T14:00:45;974.55;;;885.03;;
31974;SDS011;18500;43.618;1.474;2023-12-20T14:03:11;864.40;;;789.35;;
31974;SDS011;18500;43.618;1.474;2023-12-20T14:05:37;865.33;;;789.40;;
31974;SDS011;18500;43.618;1.474;2023-12-20T14:08:02;1095.13;;;988.50;;
31974;SDS011;18500;43.618;1.474;2023-12-20T14:10:28;1078.75;;;973.47;;
31974;SDS011;18500;43.618;1.474;2023-12-20T14:12:54;1097.13;;;987.92;;
31974;SDS011;18500;43.618;1.474;2023-12-20T14:15:20;935.53;;;858.65;;
31974;SDS011;18500;43.618;1.474;2023-12-20T14:17:46;905.85;;;828.22;;
31974;SDS011;18500;43.618;1.474;2023-12-20T14:20:12;894.65;;;824.55;;
31974;SDS011;18500;43.618;1.474;2023-12-20T14:22:38;920.45;;;846.40;;
31974;SDS011;18500;43.618;1.474;2023-12-20T14:25:08;886.30;;;815.78;;
31974;SDS011;18500;43.618;1.474;2023-12-20T14:27:37;797.60;;;739.30;;
31974;SDS011;18500;43.618;1.474;2023-12-20T14:30:03;767.35;;;709.78;;
31974;SDS011;18500;43.618;1.474;2023-12-20T14:32:31;926.40;;;847.60;;
31974;SDS011;18500;43.618;1.474;2023-12-20T14:34:56;816.33;;;754.25;;
31974;SDS011;18500;43.618;1.474;2023-12-20T14:37:22;647.78;;;598.50;;
31974;SDS011;18500;43.618;1.474;2023-12-20T14:39:48;690.85;;;640.35;;
31974;SDS011;18500;43.618;1.474;2023-12-20T14:42:14;699.42;;;647.63;;
31974;SDS011;18500;43.618;1.474;2023-12-20T14:44:40;773.67;;;717.10;;
31974;SDS011;18500;43.618;1.474;2023-12-20T14:47:06;623.85;;;577.83;;
31974;SDS011;18500;43.618;1.474;2023-12-20T14:49:32;417.85;;;390.25;;
31974;SDS011;18500;43.618;1.474;2023-12-20T14:51:58;546.42;;;511.73;;
31974;SDS011;18500;43.618;1.474;2023-12-20T14:54:24;652.38;;;607.45;;
31974;SDS011;18500;43.618;1.474;2023-12-20T14:56:50;704.50;;;658.03;;
31974;SDS011;18500;43.618;1.474;2023-12-20T14:59:15;436.27;;;409.88;;
31974;SDS011;18500;43.618;1.474;2023-12-20T15:01:41;737.25;;;687.92;;
31974;SDS011;18500;43.618;1.474;2023-12-20T15:04:09;680.10;;;636.35;;
31974;SDS011;18500;43.618;1.474;2023-12-20T15:06:35;520.70;;;488.63;;
31974;SDS011;18500;43.618;1.474;2023-12-20T15:09:02;588.60;;;552.05;;
31974;SDS011;18500;43.618;1.474;2023-12-20T15:11:29;728.97;;;681.00;;
31974;SDS011;18500;43.618;1.474;2023-12-20T15:13:58;720.60;;;667.47;;
31974;SDS011;18500;43.618;1.474;2023-12-20T15:16:25;795.17;;;731.63;;
31974;SDS011;18500;43.618;1.474;2023-12-20T15:18:51;747.38;;;689.28;;
31974;SDS011;18500;43.618;1.474;2023-12-20T15:21:20;810.28;;;744.30;;
31974;SDS011;18500;43.618;1.474;2023-12-20T15:23:55;792.67;;;735.08;;
31974;SDS011;18500;43.618;1.474;2023-12-20T15:26:30;527.15;;;492.25;;
31974;SDS011;18500;43.618;1.474;2023-12-20T15:28:57;536.30;;;499.13;;
31974;SDS011;18500;43.618;1.474;2023-12-20T15:31:24;446.75;;;413.48;;
31974;SDS011;18500;43.618;1.474;2023-12-20T15:33:51;472.63;;;437.83;;
31974;SDS011;18500;43.618;1.474;2023-12-20T15:36:17;520.13;;;479.92;;
31974;SDS011;18500;43.618;1.474;2023-12-20T15:38:43;571.72;;;529.83;;
31974;SDS011;18500;43.618;1.474;2023-12-20T15:41:09;375.58;;;349.92;;
31974;SDS011;18500;43.618;1.474;2023-12-20T15:43:45;484.92;;;449.95;;
31974;SDS011;18500;43.618;1.474;2023-12-20T15:46:11;437.27;;;405.17;;
31974;SDS011;18500;43.618;1.474;2023-12-20T15:48:37;492.42;;;456.55;;
31974;SDS011;18500;43.618;1.474;2023-12-20T15:51:06;508.42;;;472.33;;
31974;SDS011;18500;43.618;1.474;2023-12-20T15:56:01;340.38;;;318.20;;
31974;SDS011;18500;43.618;1.474;2023-12-20T15:58:27;462.85;;;430.55;;
31974;SDS011;18500;43.618;1.474;2023-12-20T16:00:54;473.88;;;440.90;;
31974;SDS011;18500;43.618;1.474;2023-12-20T16:03:20;529.95;;;491.63;;
31974;SDS011;18500;43.618;1.474;2023-12-20T16:05:46;529.40;;;492.85;;
31974;SDS011;18500;43.618;1.474;2023-12-20T16:08:11;558.28;;;519.55;;
31974;SDS011;18500;43.618;1.474;2023-12-20T16:10:37;514.15;;;479.85;;
31974;SDS011;18500;43.618;1.474;2023-12-20T16:13:03;592.38;;;549.25;;
31974;SDS011;18500;43.618;1.474;2023-12-20T16:15:29;721.13;;;664.33;;
31974;SDS011;18500;43.618;1.474;2023-12-20T16:17:55;573.45;;;528.90;;
31974;SDS011;18500;43.618;1.474;2023-12-20T16:20:20;815.90;;;749.03;;
31974;SDS011;18500;43.618;1.474;2023-12-20T16:22:46;794.90;;;730.75;;
31974;SDS011;18500;43.618;1.474;2023-12-20T16:25:11;777.70;;;716.13;;
31974;SDS011;18500;43.618;1.474;2023-12-20T16:27:37;592.30;;;547.00;;
31974;SDS011;18500;43.618;1.474;2023-12-20T16:30:04;731.30;;;673.08;;
31974;SDS011;18500;43.618;1.474;2023-12-20T16:32:30;648.33;;;595.75;;
31974;SDS011;18500;43.618;1.474;2023-12-20T16:34:56;805.97;;;740.70;;
31974;SDS011;18500;43.618;1.474;2023-12-20T16:37:22;685.45;;;630.20;;
31974;SDS011;18500;43.618;1.474;2023-12-20T16:39:48;729.10;;;670.33;;
31974;SDS011;18500;43.618;1.474;2023-12-20T16:42:14;774.33;;;712.30;;
31974;SDS011;18500;43.618;1.474;2023-12-20T16:44:39;620.28;;;572.00;;
31974;SDS011;18500;43.618;1.474;2023-12-20T16:47:05;651.10;;;597.78;;
31974;SDS011;18500;43.618;1.474;2023-12-20T16:49:31;611.95;;;563.17;;
31974;SDS011;18500;43.618;1.474;2023-12-20T16:51:57;607.92;;;561.00;;
31974;SDS011;18500;43.618;1.474;2023-12-20T16:54:23;720.10;;;663.08;;
31974;SDS011;18500;43.618;1.474;2023-12-20T16:56:48;692.85;;;639.78;;
31974;SDS011;18500;43.618;1.474;2023-12-20T16:59:14;659.97;;;609.92;;
31974;SDS011;18500;43.618;1.474;2023-12-20T17:01:40;636.35;;;587.63;;
31974;SDS011;18500;43.618;1.474;2023-12-20T17:04:09;643.17;;;594.72;;
31974;SDS011;18500;43.618;1.474;2023-12-20T17:06:34;723.03;;;666.85;;
31974;SDS011;18500;43.618;1.474;2023-12-20T17:09:00;654.78;;;607.53;;
31974;SDS011;18500;43.618;1.474;2023-12-20T17:11:26;461.02;;;428.75;;
31974;SDS011;18500;43.618;1.474;2023-12-20T17:13:51;569.47;;;528.47;;
31974;SDS011;18500;43.618;1.474;2023-12-20T17:16:17;552.03;;;511.08;;
31974;SDS011;18500;43.618;1.474;2023-12-20T17:18:43;716.38;;;660.47;;
31974;SDS011;18500;43.618;1.474;2023-12-20T17:21:16;468.38;;;433.75;;
31974;SDS011;18500;43.618;1.474;2023-12-20T17:23:46;548.35;;;507.63;;
31974;SDS011;18500;43.618;1.474;2023-12-20T17:26:12;657.50;;;607.97;;
31974;SDS011;18500;43.618;1.474;2023-12-20T17:28:38;617.88;;;569.55;;
31974;SDS011;18500;43.618;1.474;2023-12-20T17:31:04;524.67;;;483.67;;
31974;SDS011;18500;43.618;1.474;2023-12-20T17:33:29;682.33;;;628.40;;
31974;SDS011;18500;43.618;1.474;2023-12-20T17:35:55;785.72;;;722.17;;
31974;SDS011;18500;43.618;1.474;2023-12-20T17:38:21;569.95;;;525.13;;
31974;SDS011;18500;43.618;1.474;2023-12-20T17:40:46;659.67;;;609.42;;
31974;SDS011;18500;43.618;1.474;2023-12-20T17:43:14;596.65;;;550.55;;
31974;SDS011;18500;43.618;1.474;2023-12-20T17:45:40;540.55;;;500.80;;
31974;SDS011;18500;43.618;1.474;2023-12-20T17:48:06;637.63;;;590.03;;
31974;SDS011;18500;43.618;1.474;2023-12-20T17:50:32;548.67;;;508.33;;
31974;SDS011;18500;43.618;1.474;2023-12-20T17:52:58;532.67;;;492.63;;
31974;SDS011;18500;43.618;1.474;2023-12-20T17:55:30;728.45;;;672.65;;
31974;SDS011;18500;43.618;1.474;2023-12-20T17:57:55;665.90;;;615.47;;
31974;SDS011;18500;43.618;1.474;2023-12-20T18:00:24;662.20;;;611.65;;
31974;SDS011;18500;43.618;1.474;2023-12-20T18:02:56;695.75;;;643.90;;
31974;SDS011;18500;43.618;1.474;2023-12-20T18:05:22;688.40;;;635.25;;
31974;SDS011;18500;43.618;1.474;2023-12-20T18:07:49;699.55;;;646.30;;
31974;SDS011;18500;43.618;1.474;2023-12-20T18:10:15;688.03;;;636.55;;
31974;SDS011;18500;43.618;1.474;2023-12-20T18:12:41;711.58;;;656.03;;
31974;SDS011;18500;43.618;1.474;2023-12-20T18:15:06;721.90;;;665.88;;
31974;SDS011;18500;43.618;1.474;2023-12-20T18:17:33;569.25;;;526.40;;
31974;SDS011;18500;43.618;1.474;2023-12-20T18:19:58;729.65;;;672.95;;
31974;SDS011;18500;43.618;1.474;2023-12-20T18:22:27;675.58;;;624.50;;
31974;SDS011;18500;43.618;1.474;2023-12-20T18:24:53;643.65;;;593.88;;
31974;SDS011;18500;43.618;1.474;2023-12-20T18:27:20;819.70;;;756.78;;
31974;SDS011;18500;43.618;1.474;2023-12-20T18:29:46;767.35;;;711.30;;
31974;SDS011;18500;43.618;1.474;2023-12-20T18:32:12;785.85;;;727.78;;
31974;SDS011;18500;43.618;1.474;2023-12-20T18:34:37;805.22;;;746.55;;
31974;SDS011;18500;43.618;1.474;2023-12-20T18:37:03;720.30;;;668.80;;
31974;SDS011;18500;43.618;1.474;2023-12-20T18:42:01;573.20;;;530.63;;
31974;SDS011;18500;43.618;1.474;2023-12-20T18:44:28;747.17;;;692.17;;
31974;SDS011;18500;43.618;1.474;2023-12-20T18:46:53;792.90;;;732.78;;
31974;SDS011;18500;43.618;1.474;2023-12-20T18:49:19;732.30;;;677.15;;
31974;SDS011;18500;43.618;1.474;2023-12-20T18:51:45;778.22;;;719.35;;
31974;SDS011;18500;43.618;1.474;2023-12-20T18:54:10;671.25;;;621.30;;
31974;SDS011;18500;43.618;1.474;2023-12-20T18:56:36;692.70;;;640.15;;
31974;SDS011;18500;43.618;1.474;2023-12-20T18:59:03;709.13;;;655.47;;
31974;SDS011;18500;43.618;1.474;2023-12-20T19:01:29;799.03;;;738.05;;
31974;SDS011;18500;43.618;1.474;2023-12-20T19:03:56;782.70;;;719.55;;
31974;SDS011;18500;43.618;1.474;2023-12-20T19:06:22;771.75;;;710.50;;
31974;SDS011;18500;43.618;1.474;2023-12-20T19:08:48;766.15;;;705.58;;
31974;SDS011;18500;43.618;1.474;2023-12-20T19:11:15;778.15;;;717.28;;
31974;SDS011;18500;43.618;1.474;2023-12-20T19:13:41;629.05;;;583.03;;
31974;SDS011;18500;43.618;1.474;2023-12-20T19:16:07;682.30;;;631.58;;
31974;SDS011;18500;43.618;1.474;2023-12-20T19:18:33;702.22;;;646.85;;
31974;SDS011;18500;43.618;1.474;2023-12-20T19:20:59;634.58;;;586.70;;
31974;SDS011;18500;43.618;1.474;2023-12-20T19:23:24;681.75;;;628.08;;
31974;SDS011;18500;43.618;1.474;2023-12-20T19:25:50;785.15;;;724.30;;
31974;SDS011;18500;43.618;1.474;2023-12-20T19:28:16;694.38;;;640.83;;
31974;SDS011;18500;43.618;1.474;2023-12-20T19:30:42;679.75;;;627.75;;
31974;SDS011;18500;43.618;1.474;2023-12-20T19:33:08;713.08;;;658.55;;
31974;SDS011;18500;43.618;1.474;2023-12-20T19:35:34;613.95;;;567.78;;
31974;SDS011;18500;43.618;1.474;2023-12-20T19:37:59;767.70;;;708.42;;
31974;SDS011;18500;43.618;1.474;2023-12-20T19:40:25;752.35;;;697.45;;
31974;SDS011;18500;43.618;1.474;2023-12-20T19:42:50;780.22;;;722.92;;
31974;SDS011;18500;43.618;1.474;2023-12-20T19:45:16;760.30;;;705.50;;
31974;SDS011;18500;43.618;1.474;2023-12-20T19:47:49;736.22;;;682.90;;
31974;SDS011;18500;43.618;1.474;2023-12-20T19:50:15;654.03;;;607.28;;
31974;SDS011;18500;43.618;1.474;2023-12-20T19:52:41;689.33;;;639.55;;
31974;SDS011;18500;43.618;1.474;2023-12-20T19:55:07;663.97;;;616.88;;
31974;SDS011;18500;43.618;1.474;2023-12-20T19:57:33;643.97;;;598.42;;
31974;SDS011;18500;43.618;1.474;2023-12-20T19:59:58;630.80;;;585.55;;
31974;SDS011;18500;43.618;1.474;2023-12-20T20:02:24;638.58;;;593.72;;
31974;SDS011;18500;43.618;1.474;2023-12-20T20:04:50;632.50;;;588.92;;
31974;SDS011;18500;43.618;1.474;2023-12-20T20:07:15;743.63;;;690.55;;
31974;SDS011;18500;43.618;1.474;2023-12-20T20:09:44;708.78;;;658.03;;